Time;durP1;ratioP1;P1;durP2;ratioP2;P2;SDS_P1;SDS_P2;PMS_P1;PMS_P2;Temp;Humidity;BMP_temperature;BMP_pressure;BME280_temperature;BME280_humidity;BME280_pressure;Samples;Min_cycle;Max_cycle;Signal;HPM_P1;HPM_P2
2023/08/22 00:00:15;;;;;;;;;;;18.70;99.90;;;;;;12353664;28;19926;-83
2023/08/22 00:06:17;;;;;;;;;;;18.80;99.90;;;;;;12363682;28;19976;-83
2023/08/22 00:12:19;;;;;;;;;;;18.70;99.90;;;;;;12365754;28;19925;-83
2023/08/22 00:18:21;;;;;;;;;;;18.70;99.90;;;;;;12359830;28;19926;-83
2023/08/22 00:24:24;;;;;;;;;;;18.60;99.90;;;;;;12364896;28;19929;-83
2023/08/22 00:30:26;;;;;;;;;;;18.60;99.90;;;;;;12342128;28;19926;-84
2023/08/22 00:36:29;;;;;;;;;;;18.50;99.90;;;;;;12356036;28;19937;-83
2023/08/22 00:42:31;;;;;;;;;;;18.60;99.90;;;;;;12367321;28;19925;-83
2023/08/22 00:48:33;;;;;;;;;;;18.60;99.90;;;;;;12361950;28;19929;-83
2023/08/22 00:54:35;;;;;;;;;;;18.60;99.90;;;;;;12365843;28;19930;-83
2023/08/22 01:00:37;;;;;;;;;;;18.50;99.90;;;;;;12348826;28;19925;-83
2023/08/22 01:06:58;;;;;;;;;;;18.00;99.90;;;;;;12368688;28;20259;-83
2023/08/22 01:13:00;;;;;;;;;;;18.00;99.90;;;;;;12377983;28;19926;-83
2023/08/22 01:19:04;;;;;;;;;;;18.10;99.90;;;;;;12428656;28;19926;-84
2023/08/22 01:25:06;;;;;;;;;;;17.90;99.90;;;;;;12400782;28;19925;-83
2023/08/22 01:31:21;;;;;;;;;;;17.90;99.90;;;;;;12400176;28;19933;-84
2023/08/22 01:37:25;;;;;;;;;;;17.90;99.90;;;;;;12410747;28;19948;-84
2023/08/22 01:43:27;;;;;;;;;;;18.00;99.90;;;;;;12376419;28;19934;-84
2023/08/22 01:49:29;;;;;;;;;;;17.90;99.90;;;;;;12380913;28;20386;-84
2023/08/22 01:55:31;;;;;;;;;;;18.10;99.90;;;;;;12385372;28;19926;-84
2023/08/22 02:01:33;;;;;;;;;;;18.00;99.90;;;;;;12359733;28;19988;-84
2023/08/22 02:07:35;;;;;;;;;;;18.10;99.90;;;;;;12365327;28;19929;-84
2023/08/22 02:13:37;;;;;;;;;;;18.00;99.90;;;;;;12390229;28;19934;-83
2023/08/22 02:19:38;;;;;;;;;;;18.10;99.90;;;;;;12391663;28;19926;-83
2023/08/22 02:25:40;;;;;;;;;;;17.90;99.90;;;;;;12364182;28;19932;-84
2023/08/22 02:31:42;;;;;;;;;;;18.10;99.90;;;;;;12347704;28;20017;-83
2023/08/22 02:37:44;;;;;;;;;;;18.20;99.90;;;;;;12362904;28;20040;-83
2023/08/22 02:43:45;;;;;;;;;;;18.30;99.90;;;;;;12364699;28;19953;-83
2023/08/22 02:49:47;;;;;;;;;;;18.30;99.90;;;;;;12354999;28;19929;-82
2023/08/22 02:55:49;;;;;;;;;;;18.20;99.90;;;;;;12376108;28;20302;-82
2023/08/22 03:01:51;;;;;;;;;;;18.10;99.90;;;;;;12334243;28;19958;-83
2023/08/22 03:07:52;;;;;;;;;;;18.20;99.90;;;;;;12365603;28;20325;-82
2023/08/22 03:13:54;;;;;;;;;;;18.20;99.90;;;;;;12371029;28;19957;-82
2023/08/22 03:19:56;;;;;;;;;;;18.20;99.90;;;;;;12361328;28;20426;-83
2023/08/22 03:25:58;;;;;;;;;;;18.00;99.90;;;;;;12359033;28;19956;-83
2023/08/22 03:32:00;;;;;;;;;;;18.00;99.90;;;;;;12358035;28;19933;-82
2023/08/22 03:38:02;;;;;;;;;;;18.10;99.90;;;;;;12345473;28;19926;-82
2023/08/22 03:44:04;;;;;;;;;;;18.00;99.90;;;;;;12354108;28;19946;-82
2023/08/22 03:50:05;;;;;;;;;;;18.00;99.90;;;;;;12338339;28;20371;-82
2023/08/22 03:56:07;;;;;;;;;;;18.00;99.90;;;;;;12355609;28;19926;-83
2023/08/22 04:02:09;;;;;;;;;;;18.00;99.90;;;;;;12349519;28;19929;-82
2023/08/22 04:08:11;;;;;;;;;;;17.90;99.90;;;;;;12343389;28;19972;-82
2023/08/22 04:14:13;;;;;;;;;;;17.70;99.90;;;;;;12355342;28;19925;-82
2023/08/22 04:20:15;;;;;;;;;;;17.50;99.90;;;;;;12347199;28;20306;-82
2023/08/22 04:26:17;;;;;;;;;;;17.70;99.90;;;;;;12312432;28;19933;-82
2023/08/22 04:32:19;;;;;;;;;;;17.90;99.90;;;;;;12339068;28;19953;-82
2023/08/22 04:38:21;;;;;;;;;;;17.90;99.90;;;;;;12359711;28;19981;-81
2023/08/22 04:44:22;;;;;;;;;;;18.00;99.90;;;;;;12364370;28;19926;-82
2023/08/22 04:50:25;;;;;;;;;;;18.00;99.90;;;;;;12342680;28;19957;-82
2023/08/22 04:56:26;;;;;;;;;;;17.90;99.90;;;;;;12355218;28;19937;-82
2023/08/22 05:02:28;;;;;;;;;;;18.00;99.90;;;;;;12362892;28;19933;-82
2023/08/22 05:08:31;;;;;;;;;;;17.80;99.90;;;;;;12371326;28;20748;-82
2023/08/22 05:14:33;;;;;;;;;;;17.80;99.90;;;;;;12342827;28;19977;-82
2023/08/22 05:20:35;;;;;;;;;;;17.80;99.90;;;;;;12333184;28;19934;-82
2023/08/22 05:26:37;;;;;;;;;;;17.90;99.90;;;;;;12322097;28;20333;-82
2023/08/22 05:32:39;;;;;;;;;;;18.00;99.90;;;;;;12340420;28;20032;-82
2023/08/22 05:38:42;;;;;;;;;;;18.10;99.90;;;;;;12337317;28;19945;-82
2023/08/22 05:44:43;;;;;;;;;;;18.10;99.90;;;;;;12341795;28;19964;-82
2023/08/22 05:50:45;;;;;;;;;;;18.00;99.90;;;;;;12362339;28;20412;-82
2023/08/22 05:56:52;;;;;;;;;;;18.10;99.90;;;;;;12327788;28;20424;-82
2023/08/22 06:02:54;;;;;;;;;;;18.10;99.90;;;;;;12338213;28;20045;-82
2023/08/22 06:08:56;;;;;;;;;;;18.20;99.90;;;;;;12351697;28;19957;-81
2023/08/22 06:14:58;;;;;;;;;;;18.50;99.90;;;;;;12325123;28;19930;-82
2023/08/22 06:21:02;;;;;;;;;;;18.60;99.90;;;;;;12352989;28;19934;-82
2023/08/22 06:27:04;;;;;;;;;;;18.60;99.90;;;;;;12372899;28;19937;-82
2023/08/22 06:33:06;;;;;;;;;;;18.90;99.90;;;;;;12349657;28;20364;-82
2023/08/22 06:39:08;;;;;;;;;;;19.20;99.90;;;;;;12373371;28;19988;-82
2023/08/22 06:45:13;;;;;;;;;;;19.40;99.90;;;;;;12362550;28;20628;-82
2023/08/22 06:51:18;;;;;;;;;;;19.60;99.90;;;;;;12354712;28;19969;-82
2023/08/22 06:57:22;;;;;;;;;;;19.70;99.90;;;;;;12365420;28;20007;-82
2023/08/22 07:03:24;;;;;;;;;;;19.90;99.90;;;;;;12320742;28;20318;-82
2023/08/22 07:09:26;;;;;;;;;;;20.00;99.90;;;;;;12335156;28;20034;-82
2023/08/22 07:15:29;;;;;;;;;;;20.10;99.90;;;;;;12351808;28;20289;-82
2023/08/22 07:21:32;;;;;;;;;;;20.30;99.90;;;;;;12358624;28;20026;-82
2023/08/22 07:27:35;;;;;;;;;;;20.30;99.90;;;;;;12329996;28;20016;-82
2023/08/22 07:33:36;;;;;;;;;;;20.40;99.90;;;;;;12369185;28;19937;-82
2023/08/22 07:39:39;;;;;;;;;;;20.60;99.90;;;;;;12343861;28;20329;-82
2023/08/22 07:45:41;;;;;;;;;;;20.70;99.90;;;;;;12341502;28;19929;-84
2023/08/22 07:51:42;;;;;;;;;;;21.00;99.90;;;;;;12386232;28;19926;-83
2023/08/22 07:57:44;;;;;;;;;;;21.30;99.90;;;;;;12357464;28;19934;-83
2023/08/22 08:03:47;;;;;;;;;;;21.50;99.90;;;;;;12346640;28;19996;-83
2023/08/22 08:09:49;;;;;;;;;;;21.70;99.90;;;;;;12344485;28;19930;-83
2023/08/22 08:15:51;;;;;;;;;;;21.60;99.90;;;;;;12347944;28;19934;-82
2023/08/22 08:22:07;;;;;;;;;;;21.70;99.90;;;;;;12358564;28;19988;-82
2023/08/22 08:28:10;;;;;;;;;;;21.70;99.90;;;;;;12335645;28;19926;-83
2023/08/22 08:34:12;;;;;;;;;;;21.60;99.90;;;;;;12350172;28;20029;-82
2023/08/22 08:40:14;;;;;;;;;;;21.50;99.90;;;;;;12322115;28;19930;-83
2023/08/22 08:46:18;;;;;;;;;;;21.50;99.90;;;;;;12367898;28;19976;-83
2023/08/22 08:52:20;;;;;;;;;;;21.60;99.90;;;;;;12361540;28;20374;-83
2023/08/22 08:58:22;;;;;;;;;;;21.60;99.90;;;;;;12358381;28;20469;-83
2023/08/22 09:04:24;;;;;;;;;;;21.70;99.90;;;;;;12347101;28;19926;-83
2023/08/22 09:10:33;;;;;;;;;;;21.70;99.90;;;;;;12328567;28;19972;-82
2023/08/22 09:16:35;;;;;;;;;;;21.70;99.90;;;;;;12341430;28;19996;-83
2023/08/22 09:22:37;;;;;;;;;;;21.80;99.90;;;;;;12357395;28;19958;-83
2023/08/22 09:28:42;;;;;;;;;;;21.80;99.90;;;;;;12262191;28;20426;-82
2023/08/22 09:34:55;;;;;;;;;;;21.80;99.90;;;;;;12252623;28;20303;-83
2023/08/22 09:40:57;;;;;;;;;;;21.90;99.90;;;;;;12255915;28;20299;-83
2023/08/22 09:47:00;;;;;;;;;;;22.30;99.90;;;;;;12257407;28;19966;-83
2023/08/22 09:53:02;;;;;;;;;;;22.20;99.90;;;;;;12288610;28;20335;-82
2023/08/22 09:59:04;;;;;;;;;;;22.40;99.90;;;;;;12281236;28;19935;-83
2023/08/22 10:05:07;;;;;;;;;;;22.60;99.90;;;;;;12282913;28;19927;-83
2023/08/22 10:11:10;;;;;;;;;;;22.90;99.90;;;;;;12271728;28;19969;-83
2023/08/22 10:17:13;;;;;;;;;;;22.90;99.90;;;;;;12286966;28;20025;-82
2023/08/22 10:23:15;;;;;;;;;;;22.70;99.90;;;;;;12271094;28;19934;-83
2023/08/22 10:29:19;;;;;;;;;;;22.60;99.90;;;;;;12284736;28;19926;-83
2023/08/22 10:35:23;;;;;;;;;;;22.50;99.90;;;;;;12267675;28;19927;-82
2023/08/22 10:41:44;;;;;;;;;;;22.50;99.90;;;;;;12259464;28;19930;-83
2023/08/22 10:48:04;;;;;;;;;;;22.50;99.90;;;;;;12275853;28;19934;-83
2023/08/22 10:54:15;;;;;;;;;;;22.70;99.90;;;;;;12267564;28;19927;-83
2023/08/22 11:00:17;;;;;;;;;;;22.70;99.90;;;;;;12256057;28;19935;-83
2023/08/22 11:06:21;;;;;;;;;;;22.70;99.90;;;;;;12256408;28;19935;-84
2023/08/22 11:12:24;;;;;;;;;;;22.90;99.90;;;;;;12279775;29;19950;-83
2023/08/22 11:18:27;;;;;;;;;;;22.90;99.90;;;;;;12272922;28;19927;-83
2023/08/22 11:24:29;;;;;;;;;;;22.80;99.90;;;;;;12305599;28;19925;-84
2023/08/22 11:30:33;;;;;;;;;;;22.90;99.90;;;;;;12348167;28;19933;-84
2023/08/22 11:36:35;;;;;;;;;;;22.90;99.90;;;;;;12358337;28;19980;-83
2023/08/22 11:42:37;;;;;;;;;;;23.20;99.90;;;;;;12348595;28;19933;-83
2023/08/22 11:48:40;;;;;;;;;;;23.70;99.90;;;;;;12370077;28;19937;-83
2023/08/22 11:54:44;;;;;;;;;;;24.20;99.90;;;;;;12370985;28;19925;-84
2023/08/22 12:00:46;;;;;;;;;;;24.10;99.90;;;;;;12352899;28;19926;-83
2023/08/22 12:07:00;;;;;;;;;;;23.90;99.90;;;;;;12340102;28;19929;-83
2023/08/22 12:13:02;;;;;;;;;;;23.70;99.90;;;;;;12354422;28;19960;-83
2023/08/22 12:19:10;;;;;;;;;;;24.50;99.90;;;;;;12341306;28;19941;-83
2023/08/22 12:25:12;;;;;;;;;;;24.50;99.90;;;;;;12361586;28;19930;-84
2023/08/22 12:31:15;;;;;;;;;;;24.60;99.90;;;;;;12343454;28;19977;-84
2023/08/22 12:37:17;;;;;;;;;;;24.90;99.90;;;;;;12335951;28;19934;-84
2023/08/22 12:43:19;;;;;;;;;;;24.70;99.90;;;;;;12350654;28;20363;-84
2023/08/22 12:49:21;;;;;;;;;;;24.40;99.90;;;;;;12338185;28;19976;-83
2023/08/22 12:55:24;;;;;;;;;;;24.70;99.90;;;;;;12355276;28;20068;-83
2023/08/22 13:01:26;;;;;;;;;;;24.60;99.90;;;;;;12362206;28;19938;-84
2023/08/22 13:07:29;;;;;;;;;;;24.50;99.90;;;;;;12346142;28;19957;-85
2023/08/22 13:13:31;;;;;;;;;;;24.20;99.90;;;;;;12351957;28;19926;-85
2023/08/22 13:19:36;;;;;;;;;;;23.90;99.90;;;;;;12387952;28;20453;-83
2023/08/22 13:25:38;;;;;;;;;;;23.90;99.90;;;;;;12379119;28;19930;-83
2023/08/22 13:31:40;;;;;;;;;;;23.90;99.90;;;;;;12349586;28;19930;-83
2023/08/22 13:37:42;;;;;;;;;;;23.80;99.90;;;;;;12364193;28;19933;-84
2023/08/22 13:43:45;;;;;;;;;;;23.80;99.90;;;;;;12381005;28;19926;-84
2023/08/22 13:49:47;;;;;;;;;;;23.70;99.90;;;;;;12357298;28;19933;-83
2023/08/22 13:55:49;;;;;;;;;;;23.70;99.90;;;;;;12358226;28;19930;-84
2023/08/22 14:01:51;;;;;;;;;;;23.60;99.90;;;;;;12357353;28;19937;-83
2023/08/22 14:07:53;;;;;;;;;;;23.60;99.90;;;;;;12360205;28;19930;-83
2023/08/22 14:13:54;;;;;;;;;;;23.60;99.90;;;;;;12364940;28;19930;-84
2023/08/22 14:19:56;;;;;;;;;;;23.50;99.90;;;;;;12354139;28;19933;-83
2023/08/22 14:25:58;;;;;;;;;;;23.30;99.90;;;;;;12336608;28;20036;-84
2023/08/22 14:32:01;;;;;;;;;;;23.40;99.90;;;;;;12361013;28;19933;-84
2023/08/22 14:38:03;;;;;;;;;;;23.50;99.90;;;;;;12350678;28;19926;-84
2023/08/22 14:44:05;;;;;;;;;;;23.60;99.90;;;;;;12369388;28;19934;-84
2023/08/22 14:50:07;;;;;;;;;;;23.50;99.90;;;;;;12378647;28;20259;-84
2023/08/22 14:56:09;;;;;;;;;;;23.60;99.90;;;;;;12368211;28;20306;-84
2023/08/22 15:02:11;;;;;;;;;;;23.50;99.90;;;;;;12362044;28;19953;-85
2023/08/22 15:08:15;;;;;;;;;;;23.40;99.90;;;;;;12363491;28;19926;-84
2023/08/22 15:14:20;;;;;;;;;;;23.40;99.90;;;;;;12350235;28;20622;-85
2023/08/22 15:20:22;;;;;;;;;;;23.20;99.90;;;;;;12364105;28;19926;-84
2023/08/22 15:26:24;;;;;;;;;;;23.30;99.90;;;;;;12337226;28;19929;-84
2023/08/22 15:32:26;;;;;;;;;;;23.50;99.90;;;;;;12346369;28;19937;-84
2023/08/22 15:38:32;;;;;;;;;;;24.50;99.90;;;;;;12344054;28;19930;-85
2023/08/22 15:44:34;;;;;;;;;;;24.20;99.90;;;;;;12346638;28;19933;-83
2023/08/22 15:50:36;;;;;;;;;;;23.60;99.90;;;;;;12347061;28;19942;-83
2023/08/22 15:56:40;;;;;;;;;;;23.40;99.90;;;;;;12344961;28;19926;-84
2023/08/22 16:02:44;;;;;;;;;;;23.30;99.90;;;;;;12367189;28;19985;-83
2023/08/22 16:08:46;;;;;;;;;;;23.80;99.90;;;;;;12341846;28;20749;-83
2023/08/22 16:14:48;;;;;;;;;;;24.60;99.90;;;;;;12351786;28;19934;-84
2023/08/22 16:20:50;;;;;;;;;;;24.90;99.90;;;;;;12353673;28;19926;-84
2023/08/22 16:26:57;;;;;;;;;;;24.90;99.90;;;;;;12341202;28;19934;-84
2023/08/22 16:32:58;;;;;;;;;;;24.90;99.90;;;;;;12339235;28;19937;-84
2023/08/22 16:39:00;;;;;;;;;;;24.80;99.90;;;;;;12355925;28;19926;-85
2023/08/22 16:45:04;;;;;;;;;;;24.80;99.90;;;;;;12369443;28;20406;-84
2023/08/22 16:51:07;;;;;;;;;;;24.90;99.90;;;;;;12335294;28;20024;-84
2023/08/22 16:57:09;;;;;;;;;;;24.60;99.90;;;;;;12353090;28;19937;-85
2023/08/22 17:03:11;;;;;;;;;;;25.00;99.90;;;;;;12339952;28;19980;-84
2023/08/22 17:09:18;;;;;;;;;;;24.80;99.90;;;;;;12336183;28;20333;-85
2023/08/22 17:15:20;;;;;;;;;;;25.00;99.90;;;;;;12347375;28;19925;-84
2023/08/22 17:21:21;;;;;;;;;;;25.20;99.90;;;;;;12352255;28;20029;-84
2023/08/22 17:27:23;;;;;;;;;;;25.40;99.90;;;;;;12377208;28;19962;-84
2023/08/22 17:33:25;;;;;;;;;;;25.20;99.90;;;;;;12332094;28;19969;-85
2023/08/22 17:39:27;;;;;;;;;;;25.30;99.90;;;;;;12353412;28;19969;-85
2023/08/22 17:45:29;;;;;;;;;;;25.40;99.90;;;;;;12355980;28;19934;-84
2023/08/22 17:51:31;;;;;;;;;;;25.10;99.90;;;;;;12379586;28;20016;-84
2023/08/22 17:57:33;;;;;;;;;;;24.80;99.90;;;;;;12357617;28;19945;-85
2023/08/22 18:03:35;;;;;;;;;;;24.30;99.90;;;;;;12285891;28;19926;-84
2023/08/22 18:09:40;;;;;;;;;;;23.80;99.90;;;;;;12256532;28;19973;-84
2023/08/22 18:15:44;;;;;;;;;;;23.50;99.90;;;;;;12255595;28;19938;-84
2023/08/22 18:22:03;;;;;;;;;;;23.20;99.90;;;;;;12264466;28;19930;-83
2023/08/22 18:28:06;;;;;;;;;;;22.90;99.90;;;;;;12272636;28;19994;-83
2023/08/22 18:34:08;;;;;;;;;;;22.70;99.90;;;;;;12271251;28;19930;-84
2023/08/22 18:40:10;;;;;;;;;;;22.60;99.90;;;;;;12285827;23;19938;-36
2023/08/22 18:46:12;;;;;;;;;;;22.50;99.90;;;;;;12272237;28;20017;-36
2023/08/22 18:52:14;;;;;;;;;;;22.30;99.90;;;;;;12262617;28;19930;-36
2023/08/22 18:58:16;;;;;;;;;;;22.00;99.90;;;;;;12273248;28;19977;-37
2023/08/22 19:04:17;;;;;;;;;;;21.80;99.90;;;;;;12263598;28;20430;-36
2023/08/22 19:10:19;;;;;;;;;;;21.50;99.90;;;;;;12279048;28;19970;-36
2023/08/22 19:16:21;;;;;;;;;;;21.50;99.90;;;;;;12275354;28;19933;-37
2023/08/22 19:22:23;;;;;;;;;;;21.60;99.90;;;;;;12271788;28;19931;-37
2023/08/22 19:28:24;;;;;;;;;;;21.60;99.90;;;;;;12271507;28;19954;-36
2023/08/22 19:34:26;;;;;;;;;;;21.60;99.90;;;;;;12286161;28;19975;-37
2023/08/22 19:40:28;;;;;;;;;;;21.50;99.90;;;;;;12264567;28;20308;-39
2023/08/22 19:46:31;;;;;;;;;;;21.50;99.90;;;;;;12272498;28;19930;-37
2023/08/22 19:52:33;;;;;;;;;;;21.30;99.90;;;;;;12270514;28;19941;-37
2023/08/22 19:58:35;;;;;;;;;;;21.20;99.90;;;;;;12270735;28;20490;-37
2023/08/22 20:04:37;;;;;;;;;;;21.20;99.90;;;;;;12281863;28;19966;-38
2023/08/22 20:10:41;;;;;;;;;;;21.10;99.90;;;;;;12253094;28;20325;-37
2023/08/22 20:16:43;;;;;;;;;;;20.90;99.90;;;;;;12265791;28;20139;-36
2023/08/22 20:22:45;;;;;;;;;;;20.80;99.90;;;;;;12266228;28;19927;-37
2023/08/22 20:28:47;;;;;;;;;;;20.90;99.90;;;;;;12284062;28;20405;-36
2023/08/22 20:34:50;;;;;;;;;;;20.90;99.90;;;;;;12271759;28;19978;-37
2023/08/22 20:40:51;;;;;;;;;;;20.70;99.90;;;;;;12275357;28;20350;-36
2023/08/22 20:46:53;;;;;;;;;;;20.80;99.90;;;;;;12274796;28;19930;-38
2023/08/22 20:52:55;;;;;;;;;;;20.60;99.90;;;;;;12277560;28;20017;-36
2023/08/22 20:58:57;;;;;;;;;;;20.50;99.90;;;;;;12271248;28;20020;-37
2023/08/22 21:04:59;;;;;;;;;;;20.60;99.90;;;;;;12271580;28;19930;-37
2023/08/22 21:11:01;;;;;;;;;;;20.70;99.90;;;;;;12274948;28;20354;-37
2023/08/22 21:17:03;;;;;;;;;;;20.60;99.90;;;;;;12281974;28;19926;-37
2023/08/22 21:23:08;;;;;;;;;;;20.60;99.90;;;;;;12272582;28;19974;-36
2023/08/22 21:29:12;;;;;;;;;;;20.50;99.90;;;;;;12270212;28;19930;-37
2023/08/22 21:35:14;;;;;;;;;;;20.40;99.90;;;;;;12265237;28;19991;-37
2023/08/22 21:41:15;;;;;;;;;;;20.30;99.90;;;;;;12279078;28;19977;-37
2023/08/22 21:47:17;;;;;;;;;;;20.20;99.90;;;;;;12290437;28;19926;-37
2023/08/22 21:53:19;;;;;;;;;;;20.20;99.90;;;;;;12269880;28;20029;-36
2023/08/22 21:59:21;;;;;;;;;;;19.90;99.90;;;;;;12280939;28;19985;-38
2023/08/22 22:05:23;;;;;;;;;;;20.20;99.90;;;;;;12280258;28;20009;-37
2023/08/22 22:11:25;;;;;;;;;;;20.20;99.90;;;;;;12271933;28;19981;-37
2023/08/22 22:17:26;;;;;;;;;;;20.30;99.90;;;;;;12263900;28;19926;-37
2023/08/22 22:23:28;;;;;;;;;;;20.30;99.90;;;;;;12262786;28;19927;-37
2023/08/22 22:29:30;;;;;;;;;;;20.30;99.90;;;;;;12293705;28;20032;-37
2023/08/22 22:35:32;;;;;;;;;;;20.30;99.90;;;;;;12267468;28;19930;-36
2023/08/22 22:41:34;;;;;;;;;;;20.20;99.90;;;;;;12273081;28;20029;-36
2023/08/22 22:47:35;;;;;;;;;;;20.00;99.90;;;;;;12273973;28;19930;-37
2023/08/22 22:53:37;;;;;;;;;;;20.00;99.90;;;;;;12277747;28;19974;-36
2023/08/22 22:59:39;;;;;;;;;;;20.00;99.90;;;;;;12273228;28;19969;-36
2023/08/22 23:05:41;;;;;;;;;;;19.80;99.90;;;;;;12270763;28;20021;-37
2023/08/22 23:11:43;;;;;;;;;;;19.70;99.90;;;;;;12284100;28;19935;-36
2023/08/22 23:18:04;;;;;;;;;;;19.70;99.90;;;;;;12272207;28;19986;-37
2023/08/22 23:24:06;;;;;;;;;;;19.80;99.90;;;;;;12271883;28;19957;-37
2023/08/22 23:30:09;;;;;;;;;;;19.80;99.90;;;;;;12264688;28;19930;-36
2023/08/22 23:36:10;;;;;;;;;;;19.70;99.90;;;;;;12259120;28;20061;-36
2023/08/22 23:42:12;;;;;;;;;;;19.50;99.90;;;;;;12266802;28;19981;-37
2023/08/22 23:48:14;;;;;;;;;;;19.40;99.90;;;;;;12259638;28;20065;-37
2023/08/22 23:54:16;;;;;;;;;;;19.40;99.90;;;;;;12275836;28;19962;-36
